sensor_id;sensor_type;location;lat;lon;timestamp;P1;durP1;ratioP1;P2;durP2;ratioP2
18210;SDS011;9231;48.852;9.882;2023-09-19T00:00:30;1.27;;;0.60;;
18210;SDS011;9231;48.852;9.882;2023-09-19T00:02:57;0.90;;;0.60;;
18210;SDS011;9231;48.852;9.882;2023-09-19T00:05:26;1.17;;;0.50;;
18210;SDS011;9231;48.852;9.882;2023-09-19T00:07:53;1.97;;;0.90;;
18210;SDS011;9231;48.852;9.882;2023-09-19T00:10:20;1.30;;;0.70;;
18210;SDS011;9231;48.852;9.882;2023-09-19T00:12:49;1.53;;;0.60;;
18210;SDS011;9231;48.852;9.882;2023-09-19T00:15:16;1.03;;;0.70;;
18210;SDS011;9231;48.852;9.882;2023-09-19T00:17:44;2.00;;;0.50;;
18210;SDS011;9231;48.852;9.882;2023-09-19T00:20:10;1.37;;;0.60;;
18210;SDS011;9231;48.852;9.882;2023-09-19T00:22:40;1.20;;;0.70;;
18210;SDS011;9231;48.852;9.882;2023-09-19T00:25:08;2.13;;;0.87;;
18210;SDS011;9231;48.852;9.882;2023-09-19T00:27:34;1.67;;;0.70;;
18210;SDS011;9231;48.852;9.882;2023-09-19T00:30:04;2.93;;;0.87;;
18210;SDS011;9231;48.852;9.882;2023-09-19T00:32:31;2.03;;;0.50;;
18210;SDS011;9231;48.852;9.882;2023-09-19T00:34:57;3.63;;;0.63;;
18210;SDS011;9231;48.852;9.882;2023-09-19T00:37:24;1.20;;;0.83;;
18210;SDS011;9231;48.852;9.882;2023-09-19T00:39:52;1.30;;;0.60;;
18210;SDS011;9231;48.852;9.882;2023-09-19T00:42:19;1.90;;;0.77;;
18210;SDS011;9231;48.852;9.882;2023-09-19T00:44:45;1.37;;;0.90;;
18210;SDS011;9231;48.852;9.882;2023-09-19T00:47:12;1.70;;;0.57;;
18210;SDS011;9231;48.852;9.882;2023-09-19T00:49:42;1.83;;;0.70;;
18210;SDS011;9231;48.852;9.882;2023-09-19T00:52:09;2.10;;;0.87;;
18210;SDS011;9231;48.852;9.882;2023-09-19T00:54:36;1.87;;;1.20;;
18210;SDS011;9231;48.852;9.882;2023-09-19T00:57:04;1.17;;;0.77;;
18210;SDS011;9231;48.852;9.882;2023-09-19T00:59:33;2.13;;;0.60;;
18210;SDS011;9231;48.852;9.882;2023-09-19T01:02:00;1.17;;;0.60;;
18210;SDS011;9231;48.852;9.882;2023-09-19T01:04:27;1.47;;;0.50;;
18210;SDS011;9231;48.852;9.882;2023-09-19T01:06:54;1.40;;;0.50;;
18210;SDS011;9231;48.852;9.882;2023-09-19T01:09:20;1.13;;;0.80;;
18210;SDS011;9231;48.852;9.882;2023-09-19T01:11:47;0.97;;;0.57;;
18210;SDS011;9231;48.852;9.882;2023-09-19T01:14:19;1.13;;;0.60;;
18210;SDS011;9231;48.852;9.882;2023-09-19T01:16:48;2.20;;;0.70;;
18210;SDS011;9231;48.852;9.882;2023-09-19T01:22:07;0.80;;;0.60;;
18210;SDS011;9231;48.852;9.882;2023-09-19T01:24:47;2.20;;;0.70;;
18210;SDS011;9231;48.852;9.882;2023-09-19T01:27:25;1.23;;;0.60;;
18210;SDS011;9231;48.852;9.882;2023-09-19T01:32:21;2.00;;;0.70;;
18210;SDS011;9231;48.852;9.882;2023-09-19T01:34:50;1.80;;;0.70;;
18210;SDS011;9231;48.852;9.882;2023-09-19T01:37:18;1.60;;;1.00;;
18210;SDS011;9231;48.852;9.882;2023-09-19T01:39:46;0.60;;;0.50;;
18210;SDS011;9231;48.852;9.882;2023-09-19T01:42:15;2.17;;;0.80;;
18210;SDS011;9231;48.852;9.882;2023-09-19T01:44:49;1.83;;;0.70;;
18210;SDS011;9231;48.852;9.882;2023-09-19T01:47:19;3.53;;;0.73;;
18210;SDS011;9231;48.852;9.882;2023-09-19T01:49:55;1.90;;;0.57;;
18210;SDS011;9231;48.852;9.882;2023-09-19T01:52:28;1.97;;;0.67;;
18210;SDS011;9231;48.852;9.882;2023-09-19T01:54:57;2.30;;;0.60;;
18210;SDS011;9231;48.852;9.882;2023-09-19T01:57:27;2.80;;;0.70;;
18210;SDS011;9231;48.852;9.882;2023-09-19T01:59:57;1.83;;;0.60;;
18210;SDS011;9231;48.852;9.882;2023-09-19T02:02:25;0.83;;;0.47;;
18210;SDS011;9231;48.852;9.882;2023-09-19T02:04:55;2.90;;;0.93;;
18210;SDS011;9231;48.852;9.882;2023-09-19T02:07:22;1.30;;;0.60;;
18210;SDS011;9231;48.852;9.882;2023-09-19T02:09:48;1.57;;;0.70;;
18210;SDS011;9231;48.852;9.882;2023-09-19T02:12:15;1.33;;;0.40;;
18210;SDS011;9231;48.852;9.882;2023-09-19T02:14:41;1.80;;;0.63;;
18210;SDS011;9231;48.852;9.882;2023-09-19T02:17:08;1.37;;;0.60;;
18210;SDS011;9231;48.852;9.882;2023-09-19T02:19:36;2.70;;;0.80;;
18210;SDS011;9231;48.852;9.882;2023-09-19T02:22:05;2.67;;;0.80;;
18210;SDS011;9231;48.852;9.882;2023-09-19T02:24:36;2.20;;;0.50;;
18210;SDS011;9231;48.852;9.882;2023-09-19T02:27:02;1.53;;;0.60;;
18210;SDS011;9231;48.852;9.882;2023-09-19T02:29:30;1.30;;;0.60;;
18210;SDS011;9231;48.852;9.882;2023-09-19T02:31:59;1.33;;;0.60;;
18210;SDS011;9231;48.852;9.882;2023-09-19T02:34:27;1.60;;;0.90;;
18210;SDS011;9231;48.852;9.882;2023-09-19T02:36:54;0.63;;;0.50;;
18210;SDS011;9231;48.852;9.882;2023-09-19T02:39:22;1.50;;;0.50;;
18210;SDS011;9231;48.852;9.882;2023-09-19T02:41:49;2.13;;;0.80;;
18210;SDS011;9231;48.852;9.882;2023-09-19T02:44:16;2.20;;;0.57;;
18210;SDS011;9231;48.852;9.882;2023-09-19T02:46:45;3.30;;;0.93;;
18210;SDS011;9231;48.852;9.882;2023-09-19T02:49:11;2.30;;;0.60;;
18210;SDS011;9231;48.852;9.882;2023-09-19T02:51:38;1.90;;;0.90;;
18210;SDS011;9231;48.852;9.882;2023-09-19T02:54:05;0.60;;;0.50;;
18210;SDS011;9231;48.852;9.882;2023-09-19T02:56:33;1.50;;;0.90;;
18210;SDS011;9231;48.852;9.882;2023-09-19T02:59:00;1.10;;;0.50;;
18210;SDS011;9231;48.852;9.882;2023-09-19T03:01:27;1.80;;;0.57;;
18210;SDS011;9231;48.852;9.882;2023-09-19T03:03:54;1.87;;;0.90;;
18210;SDS011;9231;48.852;9.882;2023-09-19T03:06:21;1.43;;;1.00;;
18210;SDS011;9231;48.852;9.882;2023-09-19T03:08:49;0.87;;;0.60;;
18210;SDS011;9231;48.852;9.882;2023-09-19T03:11:16;3.93;;;0.67;;
18210;SDS011;9231;48.852;9.882;2023-09-19T03:13:50;1.80;;;0.70;;
18210;SDS011;9231;48.852;9.882;2023-09-19T03:16:16;0.83;;;0.60;;
18210;SDS011;9231;48.852;9.882;2023-09-19T03:18:44;1.97;;;0.70;;
18210;SDS011;9231;48.852;9.882;2023-09-19T03:21:11;0.80;;;0.50;;
18210;SDS011;9231;48.852;9.882;2023-09-19T03:23:38;1.30;;;0.77;;
18210;SDS011;9231;48.852;9.882;2023-09-19T03:26:05;0.97;;;0.47;;
18210;SDS011;9231;48.852;9.882;2023-09-19T03:28:32;2.50;;;0.60;;
18210;SDS011;9231;48.852;9.882;2023-09-19T03:31:01;1.27;;;0.53;;
18210;SDS011;9231;48.852;9.882;2023-09-19T03:33:27;1.57;;;0.60;;
18210;SDS011;9231;48.852;9.882;2023-09-19T03:35:56;1.00;;;0.70;;
18210;SDS011;9231;48.852;9.882;2023-09-19T03:38:24;0.90;;;0.60;;
18210;SDS011;9231;48.852;9.882;2023-09-19T03:40:50;2.23;;;0.60;;
18210;SDS011;9231;48.852;9.882;2023-09-19T03:43:17;2.07;;;0.90;;
18210;SDS011;9231;48.852;9.882;2023-09-19T03:45:44;1.30;;;0.60;;
18210;SDS011;9231;48.852;9.882;2023-09-19T03:48:13;1.60;;;0.50;;
18210;SDS011;9231;48.852;9.882;2023-09-19T03:50:39;2.40;;;0.90;;
18210;SDS011;9231;48.852;9.882;2023-09-19T03:53:05;1.63;;;0.90;;
18210;SDS011;9231;48.852;9.882;2023-09-19T03:55:32;1.40;;;1.03;;
18210;SDS011;9231;48.852;9.882;2023-09-19T03:58:00;2.73;;;0.90;;
18210;SDS011;9231;48.852;9.882;2023-09-19T04:00:26;1.57;;;0.83;;
18210;SDS011;9231;48.852;9.882;2023-09-19T04:02:54;2.93;;;1.10;;
18210;SDS011;9231;48.852;9.882;2023-09-19T04:05:23;3.77;;;1.03;;
18210;SDS011;9231;48.852;9.882;2023-09-19T04:07:50;1.47;;;1.10;;
18210;SDS011;9231;48.852;9.882;2023-09-19T04:10:16;1.63;;;0.70;;
18210;SDS011;9231;48.852;9.882;2023-09-19T04:12:50;1.77;;;0.83;;
18210;SDS011;9231;48.852;9.882;2023-09-19T04:15:17;1.53;;;0.90;;
18210;SDS011;9231;48.852;9.882;2023-09-19T04:17:43;2.10;;;1.10;;
18210;SDS011;9231;48.852;9.882;2023-09-19T04:20:10;2.60;;;1.23;;
18210;SDS011;9231;48.852;9.882;2023-09-19T04:22:38;1.33;;;0.77;;
18210;SDS011;9231;48.852;9.882;2023-09-19T04:25:05;2.43;;;1.70;;
18210;SDS011;9231;48.852;9.882;2023-09-19T04:27:33;1.80;;;0.70;;
18210;SDS011;9231;48.852;9.882;2023-09-19T04:29:59;1.23;;;0.70;;
18210;SDS011;9231;48.852;9.882;2023-09-19T04:32:30;1.10;;;0.80;;
18210;SDS011;9231;48.852;9.882;2023-09-19T04:34:57;1.33;;;0.90;;
18210;SDS011;9231;48.852;9.882;2023-09-19T04:37:27;1.03;;;0.70;;
18210;SDS011;9231;48.852;9.882;2023-09-19T04:39:55;2.20;;;0.90;;
18210;SDS011;9231;48.852;9.882;2023-09-19T04:42:21;2.53;;;0.80;;
18210;SDS011;9231;48.852;9.882;2023-09-19T04:44:49;1.27;;;0.73;;
18210;SDS011;9231;48.852;9.882;2023-09-19T04:47:19;1.23;;;0.70;;
18210;SDS011;9231;48.852;9.882;2023-09-19T04:49:46;1.13;;;0.73;;
18210;SDS011;9231;48.852;9.882;2023-09-19T04:52:12;1.57;;;0.90;;
18210;SDS011;9231;48.852;9.882;2023-09-19T04:54:40;0.90;;;0.70;;
18210;SDS011;9231;48.852;9.882;2023-09-19T04:57:08;2.83;;;0.80;;
18210;SDS011;9231;48.852;9.882;2023-09-19T04:59:35;1.70;;;0.70;;
18210;SDS011;9231;48.852;9.882;2023-09-19T05:02:01;2.10;;;0.97;;
18210;SDS011;9231;48.852;9.882;2023-09-19T05:04:28;1.73;;;0.97;;
18210;SDS011;9231;48.852;9.882;2023-09-19T05:06:54;1.33;;;0.80;;
18210;SDS011;9231;48.852;9.882;2023-09-19T05:09:21;3.07;;;1.00;;
18210;SDS011;9231;48.852;9.882;2023-09-19T05:11:48;1.50;;;0.80;;
18210;SDS011;9231;48.852;9.882;2023-09-19T05:14:17;1.17;;;0.70;;
18210;SDS011;9231;48.852;9.882;2023-09-19T05:16:45;2.00;;;0.80;;
18210;SDS011;9231;48.852;9.882;2023-09-19T05:19:11;0.63;;;0.63;;
18210;SDS011;9231;48.852;9.882;2023-09-19T05:21:37;2.23;;;0.90;;
18210;SDS011;9231;48.852;9.882;2023-09-19T05:24:04;2.53;;;0.73;;
18210;SDS011;9231;48.852;9.882;2023-09-19T05:26:31;0.80;;;0.80;;
18210;SDS011;9231;48.852;9.882;2023-09-19T05:28:58;2.40;;;1.13;;
18210;SDS011;9231;48.852;9.882;2023-09-19T05:31:26;3.40;;;1.60;;
18210;SDS011;9231;48.852;9.882;2023-09-19T05:33:52;3.93;;;2.23;;
18210;SDS011;9231;48.852;9.882;2023-09-19T05:36:19;1.80;;;1.30;;
18210;SDS011;9231;48.852;9.882;2023-09-19T05:38:46;1.60;;;0.83;;
18210;SDS011;9231;48.852;9.882;2023-09-19T05:41:15;1.87;;;0.80;;
18210;SDS011;9231;48.852;9.882;2023-09-19T05:43:43;3.90;;;1.20;;
18210;SDS011;9231;48.852;9.882;2023-09-19T05:46:09;2.50;;;1.07;;
18210;SDS011;9231;48.852;9.882;2023-09-19T05:48:37;1.10;;;0.70;;
18210;SDS011;9231;48.852;9.882;2023-09-19T05:51:04;1.07;;;0.87;;
18210;SDS011;9231;48.852;9.882;2023-09-19T05:53:31;1.40;;;0.87;;
18210;SDS011;9231;48.852;9.882;2023-09-19T05:55:58;6.30;;;1.10;;
18210;SDS011;9231;48.852;9.882;2023-09-19T05:58:26;1.07;;;0.70;;
18210;SDS011;9231;48.852;9.882;2023-09-19T06:00:52;1.10;;;0.80;;
18210;SDS011;9231;48.852;9.882;2023-09-19T06:03:18;1.07;;;0.60;;
18210;SDS011;9231;48.852;9.882;2023-09-19T06:05:46;1.67;;;0.80;;
18210;SDS011;9231;48.852;9.882;2023-09-19T06:08:14;1.70;;;1.00;;
18210;SDS011;9231;48.852;9.882;2023-09-19T06:10:40;3.10;;;1.30;;
18210;SDS011;9231;48.852;9.882;2023-09-19T06:13:07;2.93;;;1.80;;
18210;SDS011;9231;48.852;9.882;2023-09-19T06:15:34;2.53;;;1.97;;
18210;SDS011;9231;48.852;9.882;2023-09-19T06:18:01;1.20;;;0.87;;
18210;SDS011;9231;48.852;9.882;2023-09-19T06:20:30;0.90;;;0.80;;
18210;SDS011;9231;48.852;9.882;2023-09-19T06:22:59;2.50;;;0.90;;
18210;SDS011;9231;48.852;9.882;2023-09-19T06:25:33;1.70;;;0.90;;
18210;SDS011;9231;48.852;9.882;2023-09-19T06:28:01;2.00;;;1.07;;
18210;SDS011;9231;48.852;9.882;2023-09-19T06:30:30;2.30;;;0.80;;
18210;SDS011;9231;48.852;9.882;2023-09-19T06:32:57;1.23;;;0.80;;
18210;SDS011;9231;48.852;9.882;2023-09-19T06:35:24;2.73;;;0.70;;
18210;SDS011;9231;48.852;9.882;2023-09-19T06:37:51;2.80;;;0.83;;
18210;SDS011;9231;48.852;9.882;2023-09-19T06:40:19;2.07;;;0.83;;
18210;SDS011;9231;48.852;9.882;2023-09-19T06:42:46;1.83;;;1.20;;
18210;SDS011;9231;48.852;9.882;2023-09-19T06:45:14;1.50;;;0.87;;
18210;SDS011;9231;48.852;9.882;2023-09-19T06:47:44;1.53;;;1.20;;
18210;SDS011;9231;48.852;9.882;2023-09-19T06:50:11;1.33;;;0.77;;
18210;SDS011;9231;48.852;9.882;2023-09-19T06:52:39;2.83;;;0.90;;
18210;SDS011;9231;48.852;9.882;2023-09-19T06:55:06;0.83;;;0.60;;
18210;SDS011;9231;48.852;9.882;2023-09-19T06:57:35;3.27;;;0.80;;
18210;SDS011;9231;48.852;9.882;2023-09-19T07:00:01;0.90;;;0.70;;
18210;SDS011;9231;48.852;9.882;2023-09-19T07:02:33;1.23;;;0.80;;
18210;SDS011;9231;48.852;9.882;2023-09-19T07:05:00;3.63;;;1.43;;
18210;SDS011;9231;48.852;9.882;2023-09-19T07:07:26;3.87;;;1.20;;
18210;SDS011;9231;48.852;9.882;2023-09-19T07:09:54;4.43;;;2.07;;
18210;SDS011;9231;48.852;9.882;2023-09-19T07:12:24;2.80;;;1.00;;
18210;SDS011;9231;48.852;9.882;2023-09-19T07:14:52;1.00;;;0.70;;
18210;SDS011;9231;48.852;9.882;2023-09-19T07:17:18;1.57;;;1.00;;
18210;SDS011;9231;48.852;9.882;2023-09-19T07:19:44;1.43;;;0.80;;
18210;SDS011;9231;48.852;9.882;2023-09-19T07:22:13;1.83;;;0.80;;
18210;SDS011;9231;48.852;9.882;2023-09-19T07:24:39;3.90;;;1.53;;
18210;SDS011;9231;48.852;9.882;2023-09-19T07:27:06;1.83;;;1.00;;
18210;SDS011;9231;48.852;9.882;2023-09-19T07:29:33;1.77;;;1.10;;
18210;SDS011;9231;48.852;9.882;2023-09-19T07:32:01;1.23;;;0.90;;
18210;SDS011;9231;48.852;9.882;2023-09-19T07:34:27;2.03;;;1.70;;
18210;SDS011;9231;48.852;9.882;2023-09-19T07:36:54;1.73;;;1.50;;
18210;SDS011;9231;48.852;9.882;2023-09-19T07:39:20;3.27;;;1.50;;
18210;SDS011;9231;48.852;9.882;2023-09-19T07:41:47;1.43;;;1.07;;
18210;SDS011;9231;48.852;9.882;2023-09-19T07:44:14;4.27;;;1.63;;
18210;SDS011;9231;48.852;9.882;2023-09-19T07:46:42;2.30;;;1.50;;
18210;SDS011;9231;48.852;9.882;2023-09-19T07:49:10;4.47;;;1.87;;
18210;SDS011;9231;48.852;9.882;2023-09-19T07:51:37;2.93;;;1.40;;
18210;SDS011;9231;48.852;9.882;2023-09-19T07:54:03;3.50;;;1.70;;
18210;SDS011;9231;48.852;9.882;2023-09-19T07:56:30;4.37;;;1.40;;
18210;SDS011;9231;48.852;9.882;2023-09-19T07:58:57;2.80;;;1.50;;
18210;SDS011;9231;48.852;9.882;2023-09-19T08:01:24;2.90;;;1.50;;
18210;SDS011;9231;48.852;9.882;2023-09-19T08:03:52;3.33;;;1.40;;
18210;SDS011;9231;48.852;9.882;2023-09-19T08:06:20;5.53;;;1.40;;
18210;SDS011;9231;48.852;9.882;2023-09-19T08:08:46;2.23;;;1.77;;
18210;SDS011;9231;48.852;9.882;2023-09-19T08:11:14;2.17;;;1.23;;
18210;SDS011;9231;48.852;9.882;2023-09-19T08:13:46;4.50;;;1.73;;
18210;SDS011;9231;48.852;9.882;2023-09-19T08:16:14;1.77;;;1.20;;
18210;SDS011;9231;48.852;9.882;2023-09-19T08:18:41;4.03;;;1.40;;
18210;SDS011;9231;48.852;9.882;2023-09-19T08:21:08;3.97;;;1.87;;
18210;SDS011;9231;48.852;9.882;2023-09-19T08:23:37;5.87;;;1.50;;
18210;SDS011;9231;48.852;9.882;2023-09-19T08:26:05;3.97;;;1.77;;
18210;SDS011;9231;48.852;9.882;2023-09-19T08:28:32;2.20;;;1.30;;
18210;SDS011;9231;48.852;9.882;2023-09-19T08:31:01;3.90;;;1.40;;
18210;SDS011;9231;48.852;9.882;2023-09-19T08:33:29;1.90;;;1.03;;
18210;SDS011;9231;48.852;9.882;2023-09-19T08:35:56;5.40;;;1.33;;
18210;SDS011;9231;48.852;9.882;2023-09-19T08:38:22;2.07;;;1.27;;
18210;SDS011;9231;48.852;9.882;2023-09-19T08:40:56;2.57;;;1.30;;
18210;SDS011;9231;48.852;9.882;2023-09-19T08:43:23;4.13;;;1.57;;
18210;SDS011;9231;48.852;9.882;2023-09-19T08:45:50;3.00;;;1.23;;
18210;SDS011;9231;48.852;9.882;2023-09-19T08:48:22;2.03;;;1.10;;
18210;SDS011;9231;48.852;9.882;2023-09-19T08:50:49;4.27;;;1.47;;
18210;SDS011;9231;48.852;9.882;2023-09-19T08:53:19;4.50;;;1.43;;
18210;SDS011;9231;48.852;9.882;2023-09-19T08:55:47;1.73;;;1.13;;
18210;SDS011;9231;48.852;9.882;2023-09-19T08:58:20;2.50;;;1.20;;
18210;SDS011;9231;48.852;9.882;2023-09-19T09:00:48;3.20;;;1.20;;
18210;SDS011;9231;48.852;9.882;2023-09-19T09:03:16;3.20;;;1.27;;
18210;SDS011;9231;48.852;9.882;2023-09-19T09:05:45;2.77;;;1.20;;
18210;SDS011;9231;48.852;9.882;2023-09-19T09:08:12;4.00;;;1.00;;
18210;SDS011;9231;48.852;9.882;2023-09-19T09:10:40;3.90;;;1.17;;
18210;SDS011;9231;48.852;9.882;2023-09-19T09:13:06;3.20;;;1.23;;
18210;SDS011;9231;48.852;9.882;2023-09-19T09:15:35;2.97;;;1.20;;
18210;SDS011;9231;48.852;9.882;2023-09-19T09:18:02;2.67;;;1.40;;
18210;SDS011;9231;48.852;9.882;2023-09-19T09:20:29;4.30;;;1.30;;
18210;SDS011;9231;48.852;9.882;2023-09-19T09:22:56;3.23;;;1.30;;
18210;SDS011;9231;48.852;9.882;2023-09-19T09:25:47;3.20;;;1.10;;
18210;SDS011;9231;48.852;9.882;2023-09-19T09:28:19;3.37;;;1.80;;
18210;SDS011;9231;48.852;9.882;2023-09-19T09:30:47;3.97;;;1.27;;
18210;SDS011;9231;48.852;9.882;2023-09-19T09:33:14;2.00;;;1.10;;
18210;SDS011;9231;48.852;9.882;2023-09-19T09:35:47;2.47;;;1.30;;
18210;SDS011;9231;48.852;9.882;2023-09-19T09:38:17;2.57;;;1.00;;
18210;SDS011;9231;48.852;9.882;2023-09-19T09:40:47;2.53;;;1.10;;
18210;SDS011;9231;48.852;9.882;2023-09-19T09:43:27;2.13;;;1.20;;
18210;SDS011;9231;48.852;9.882;2023-09-19T09:46:07;2.80;;;1.00;;
18210;SDS011;9231;48.852;9.882;2023-09-19T09:48:58;3.07;;;1.40;;
18210;SDS011;9231;48.852;9.882;2023-09-19T09:51:44;3.57;;;0.90;;
18210;SDS011;9231;48.852;9.882;2023-09-19T09:54:23;4.27;;;1.13;;
18210;SDS011;9231;48.852;9.882;2023-09-19T09:56:53;2.63;;;1.40;;
18210;SDS011;9231;48.852;9.882;2023-09-19T10:02:07;3.37;;;1.07;;
18210;SDS011;9231;48.852;9.882;2023-09-19T10:04:34;2.73;;;1.00;;
18210;SDS011;9231;48.852;9.882;2023-09-19T10:07:09;2.07;;;1.13;;
18210;SDS011;9231;48.852;9.882;2023-09-19T10:09:44;3.20;;;1.30;;
18210;SDS011;9231;48.852;9.882;2023-09-19T10:12:15;3.07;;;1.23;;
18210;SDS011;9231;48.852;9.882;2023-09-19T10:14:45;2.93;;;1.20;;
18210;SDS011;9231;48.852;9.882;2023-09-19T10:17:13;2.13;;;0.90;;
18210;SDS011;9231;48.852;9.882;2023-09-19T10:19:45;2.60;;;1.20;;
18210;SDS011;9231;48.852;9.882;2023-09-19T10:22:13;1.93;;;0.80;;
18210;SDS011;9231;48.852;9.882;2023-09-19T10:24:41;2.33;;;0.90;;
18210;SDS011;9231;48.852;9.882;2023-09-19T10:27:10;2.23;;;1.17;;
18210;SDS011;9231;48.852;9.882;2023-09-19T10:29:36;2.53;;;1.00;;
18210;SDS011;9231;48.852;9.882;2023-09-19T10:32:05;2.00;;;0.80;;
18210;SDS011;9231;48.852;9.882;2023-09-19T10:34:35;2.17;;;1.20;;
18210;SDS011;9231;48.852;9.882;2023-09-19T10:37:02;2.93;;;1.00;;
18210;SDS011;9231;48.852;9.882;2023-09-19T10:39:31;1.63;;;0.90;;
18210;SDS011;9231;48.852;9.882;2023-09-19T10:41:59;1.70;;;1.10;;
18210;SDS011;9231;48.852;9.882;2023-09-19T10:44:31;2.13;;;1.10;;
18210;SDS011;9231;48.852;9.882;2023-09-19T10:46:58;2.03;;;1.00;;
18210;SDS011;9231;48.852;9.882;2023-09-19T10:49:25;1.40;;;1.00;;
18210;SDS011;9231;48.852;9.882;2023-09-19T10:51:53;2.20;;;1.00;;
18210;SDS011;9231;48.852;9.882;2023-09-19T10:54:21;3.63;;;1.13;;
18210;SDS011;9231;48.852;9.882;2023-09-19T10:56:51;2.88;;;1.10;;
18210;SDS011;9231;48.852;9.882;2023-09-19T10:59:19;3.87;;;1.07;;
18210;SDS011;9231;48.852;9.882;2023-09-19T11:01:46;3.25;;;0.98;;
18210;SDS011;9231;48.852;9.882;2023-09-19T11:04:26;1.25;;;0.90;;
18210;SDS011;9231;48.852;9.882;2023-09-19T11:07:01;1.42;;;0.82;;
18210;SDS011;9231;48.852;9.882;2023-09-19T11:09:45;1.92;;;0.90;;
18210;SDS011;9231;48.852;9.882;2023-09-19T11:12:12;2.83;;;0.90;;
18210;SDS011;9231;48.852;9.882;2023-09-19T11:14:41;0.95;;;0.75;;
18210;SDS011;9231;48.852;9.882;2023-09-19T11:20:24;1.65;;;0.70;;
18210;SDS011;9231;48.852;9.882;2023-09-19T11:25:59;2.45;;;1.00;;
18210;SDS011;9231;48.852;9.882;2023-09-19T11:28:30;1.08;;;0.70;;
18210;SDS011;9231;48.852;9.882;2023-09-19T11:30:56;3.05;;;0.77;;
18210;SDS011;9231;48.852;9.882;2023-09-19T11:33:24;2.45;;;1.00;;
18210;SDS011;9231;48.852;9.882;2023-09-19T11:36:03;1.77;;;0.90;;
18210;SDS011;9231;48.852;9.882;2023-09-19T11:46:53;2.22;;;0.75;;
18210;SDS011;9231;48.852;9.882;2023-09-19T11:49:25;1.05;;;0.70;;
18210;SDS011;9231;48.852;9.882;2023-09-19T11:51:55;1.98;;;0.73;;
18210;SDS011;9231;48.852;9.882;2023-09-19T11:54:22;1.27;;;0.60;;
18210;SDS011;9231;48.852;9.882;2023-09-19T11:56:53;1.33;;;0.80;;
18210;SDS011;9231;48.852;9.882;2023-09-19T11:59:20;1.58;;;0.70;;
18210;SDS011;9231;48.852;9.882;2023-09-19T12:01:50;1.00;;;0.80;;
18210;SDS011;9231;48.852;9.882;2023-09-19T12:04:21;0.90;;;0.68;;
18210;SDS011;9231;48.852;9.882;2023-09-19T12:06:58;1.20;;;0.60;;
18210;SDS011;9231;48.852;9.882;2023-09-19T12:09:25;1.30;;;0.70;;
18210;SDS011;9231;48.852;9.882;2023-09-19T12:11:53;4.03;;;0.60;;
18210;SDS011;9231;48.852;9.882;2023-09-19T12:14:22;1.95;;;0.43;;
18210;SDS011;9231;48.852;9.882;2023-09-19T12:16:54;1.65;;;0.90;;
18210;SDS011;9231;48.852;9.882;2023-09-19T12:19:22;1.95;;;0.60;;
18210;SDS011;9231;48.852;9.882;2023-09-19T12:21:56;1.95;;;0.80;;
18210;SDS011;9231;48.852;9.882;2023-09-19T12:24:24;1.05;;;0.70;;
18210;SDS011;9231;48.852;9.882;2023-09-19T12:26:54;2.58;;;0.70;;
18210;SDS011;9231;48.852;9.882;2023-09-19T12:29:22;1.75;;;0.80;;
18210;SDS011;9231;48.852;9.882;2023-09-19T12:31:50;3.03;;;0.63;;
18210;SDS011;9231;48.852;9.882;2023-09-19T12:34:17;2.88;;;0.70;;
18210;SDS011;9231;48.852;9.882;2023-09-19T12:36:46;1.00;;;0.52;;
18210;SDS011;9231;48.852;9.882;2023-09-19T12:39:22;1.17;;;0.60;;
18210;SDS011;9231;48.852;9.882;2023-09-19T12:41:49;1.35;;;0.60;;
18210;SDS011;9231;48.852;9.882;2023-09-19T12:44:16;1.25;;;0.70;;
18210;SDS011;9231;48.852;9.882;2023-09-19T12:46:43;1.80;;;0.80;;
18210;SDS011;9231;48.852;9.882;2023-09-19T12:49:16;2.70;;;0.60;;
18210;SDS011;9231;48.852;9.882;2023-09-19T12:51:43;1.52;;;0.80;;
18210;SDS011;9231;48.852;9.882;2023-09-19T12:54:11;1.27;;;0.60;;
18210;SDS011;9231;48.852;9.882;2023-09-19T12:56:40;2.08;;;0.70;;
18210;SDS011;9231;48.852;9.882;2023-09-19T12:59:09;2.08;;;0.80;;
18210;SDS011;9231;48.852;9.882;2023-09-19T13:01:38;2.22;;;0.98;;
18210;SDS011;9231;48.852;9.882;2023-09-19T13:04:10;0.75;;;0.60;;
18210;SDS011;9231;48.852;9.882;2023-09-19T13:06:37;0.85;;;0.57;;
18210;SDS011;9231;48.852;9.882;2023-09-19T13:09:08;2.38;;;0.80;;
18210;SDS011;9231;48.852;9.882;2023-09-19T13:11:37;2.40;;;0.70;;
18210;SDS011;9231;48.852;9.882;2023-09-19T13:14:18;3.00;;;0.90;;
18210;SDS011;9231;48.852;9.882;2023-09-19T13:16:58;1.02;;;0.55;;
18210;SDS011;9231;48.852;9.882;2023-09-19T13:19:35;1.55;;;0.88;;
18210;SDS011;9231;48.852;9.882;2023-09-19T13:22:01;2.65;;;0.90;;
18210;SDS011;9231;48.852;9.882;2023-09-19T13:24:29;2.03;;;0.82;;
18210;SDS011;9231;48.852;9.882;2023-09-19T13:26:57;2.45;;;0.90;;
18210;SDS011;9231;48.852;9.882;2023-09-19T13:29:25;2.63;;;0.90;;
18210;SDS011;9231;48.852;9.882;2023-09-19T13:31:52;1.05;;;0.60;;
18210;SDS011;9231;48.852;9.882;2023-09-19T13:34:18;1.48;;;0.82;;
18210;SDS011;9231;48.852;9.882;2023-09-19T13:36:45;7.55;;;1.08;;
18210;SDS011;9231;48.852;9.882;2023-09-19T13:39:13;1.50;;;0.70;;
18210;SDS011;9231;48.852;9.882;2023-09-19T13:41:40;0.80;;;0.60;;
18210;SDS011;9231;48.852;9.882;2023-09-19T13:44:09;0.82;;;0.80;;
18210;SDS011;9231;48.852;9.882;2023-09-19T13:46:36;2.60;;;0.90;;
18210;SDS011;9231;48.852;9.882;2023-09-19T13:49:03;1.65;;;0.80;;
18210;SDS011;9231;48.852;9.882;2023-09-19T13:51:30;1.63;;;0.85;;
18210;SDS011;9231;48.852;9.882;2023-09-19T13:53:57;3.15;;;0.80;;
18210;SDS011;9231;48.852;9.882;2023-09-19T13:56:24;2.58;;;0.70;;
18210;SDS011;9231;48.852;9.882;2023-09-19T13:58:52;1.00;;;0.70;;
18210;SDS011;9231;48.852;9.882;2023-09-19T14:01:20;1.48;;;0.75;;
18210;SDS011;9231;48.852;9.882;2023-09-19T14:03:47;1.27;;;0.65;;
18210;SDS011;9231;48.852;9.882;2023-09-19T14:06:15;2.53;;;1.05;;
18210;SDS011;9231;48.852;9.882;2023-09-19T14:08:41;2.83;;;0.77;;
18210;SDS011;9231;48.852;9.882;2023-09-19T14:11:07;1.52;;;1.00;;
18210;SDS011;9231;48.852;9.882;2023-09-19T14:13:34;1.58;;;0.88;;
18210;SDS011;9231;48.852;9.882;2023-09-19T14:16:02;2.05;;;0.80;;
18210;SDS011;9231;48.852;9.882;2023-09-19T14:18:31;1.42;;;0.60;;
18210;SDS011;9231;48.852;9.882;2023-09-19T14:21:02;1.35;;;0.68;;
18210;SDS011;9231;48.852;9.882;2023-09-19T14:23:29;2.63;;;0.90;;
18210;SDS011;9231;48.852;9.882;2023-09-19T14:25:55;1.42;;;0.70;;
18210;SDS011;9231;48.852;9.882;2023-09-19T14:28:22;2.10;;;1.08;;
18210;SDS011;9231;48.852;9.882;2023-09-19T14:30:50;1.70;;;1.05;;
18210;SDS011;9231;48.852;9.882;2023-09-19T14:33:16;1.63;;;0.90;;
18210;SDS011;9231;48.852;9.882;2023-09-19T14:35:44;1.55;;;0.60;;
18210;SDS011;9231;48.852;9.882;2023-09-19T14:38:11;1.42;;;0.88;;
18210;SDS011;9231;48.852;9.882;2023-09-19T14:40:37;1.75;;;0.88;;
18210;SDS011;9231;48.852;9.882;2023-09-19T14:43:04;1.67;;;0.60;;
18210;SDS011;9231;48.852;9.882;2023-09-19T14:45:35;1.48;;;0.80;;
18210;SDS011;9231;48.852;9.882;2023-09-19T14:48:01;1.58;;;0.70;;
18210;SDS011;9231;48.852;9.882;2023-09-19T14:50:30;1.55;;;0.75;;
18210;SDS011;9231;48.852;9.882;2023-09-19T14:52:59;2.13;;;0.70;;
18210;SDS011;9231;48.852;9.882;2023-09-19T14:55:27;2.20;;;0.90;;
18210;SDS011;9231;48.852;9.882;2023-09-19T14:57:54;2.35;;;0.82;;
18210;SDS011;9231;48.852;9.882;2023-09-19T15:00:23;2.95;;;0.95;;
18210;SDS011;9231;48.852;9.882;2023-09-19T15:02:50;2.03;;;0.88;;
18210;SDS011;9231;48.852;9.882;2023-09-19T15:05:17;1.75;;;0.80;;
18210;SDS011;9231;48.852;9.882;2023-09-19T15:07:44;1.10;;;0.70;;
18210;SDS011;9231;48.852;9.882;2023-09-19T15:10:12;1.88;;;1.00;;
18210;SDS011;9231;48.852;9.882;2023-09-19T15:12:38;1.52;;;0.65;;
18210;SDS011;9231;48.852;9.882;2023-09-19T15:15:05;1.13;;;0.70;;
18210;SDS011;9231;48.852;9.882;2023-09-19T15:17:33;2.70;;;1.10;;
18210;SDS011;9231;48.852;9.882;2023-09-19T15:20:00;2.35;;;0.88;;
18210;SDS011;9231;48.852;9.882;2023-09-19T15:22:27;2.05;;;0.75;;
18210;SDS011;9231;48.852;9.882;2023-09-19T15:24:53;1.33;;;0.70;;
18210;SDS011;9231;48.852;9.882;2023-09-19T15:27:24;1.38;;;0.77;;
18210;SDS011;9231;48.852;9.882;2023-09-19T15:29:51;1.33;;;0.85;;